sensor_id;sensor_type;location;lat;lon;timestamp;P1;durP1;ratioP1;P2;durP2;ratioP2
16579;SDS011;8402;51.466;6.806;2022-12-18T00:00:05;30.73;;;11.97;;
16579;SDS011;8402;51.466;6.806;2022-12-18T00:02:34;39.90;;;15.30;;
16579;SDS011;8402;51.466;6.806;2022-12-18T00:05:02;37.83;;;14.23;;
16579;SDS011;8402;51.466;6.806;2022-12-18T00:07:30;35.87;;;14.07;;
16579;SDS011;8402;51.466;6.806;2022-12-18T00:09:58;44.53;;;14.83;;
16579;SDS011;8402;51.466;6.806;2022-12-18T00:12:27;35.83;;;14.60;;
16579;SDS011;8402;51.466;6.806;2022-12-18T00:14:55;50.03;;;14.70;;
16579;SDS011;8402;51.466;6.806;2022-12-18T00:17:23;33.73;;;12.83;;
16579;SDS011;8402;51.466;6.806;2022-12-18T00:19:51;42.40;;;16.37;;
16579;SDS011;8402;51.466;6.806;2022-12-18T00:22:19;35.97;;;14.17;;
16579;SDS011;8402;51.466;6.806;2022-12-18T00:24:47;32.67;;;13.60;;
16579;SDS011;8402;51.466;6.806;2022-12-18T00:27:15;35.23;;;15.10;;
16579;SDS011;8402;51.466;6.806;2022-12-18T00:29:44;34.80;;;14.30;;
16579;SDS011;8402;51.466;6.806;2022-12-18T00:32:12;29.37;;;10.47;;
16579;SDS011;8402;51.466;6.806;2022-12-18T00:34:40;37.03;;;11.60;;
16579;SDS011;8402;51.466;6.806;2022-12-18T00:37:07;38.00;;;13.13;;
16579;SDS011;8402;51.466;6.806;2022-12-18T00:39:42;34.03;;;12.80;;
16579;SDS011;8402;51.466;6.806;2022-12-18T00:42:10;30.40;;;13.67;;
16579;SDS011;8402;51.466;6.806;2022-12-18T00:44:57;28.83;;;11.57;;
16579;SDS011;8402;51.466;6.806;2022-12-18T00:47:25;34.23;;;11.10;;
16579;SDS011;8402;51.466;6.806;2022-12-18T00:49:53;37.27;;;12.63;;
16579;SDS011;8402;51.466;6.806;2022-12-18T00:52:20;40.00;;;14.63;;
16579;SDS011;8402;51.466;6.806;2022-12-18T00:54:48;26.53;;;10.00;;
16579;SDS011;8402;51.466;6.806;2022-12-18T00:57:16;27.83;;;11.67;;
16579;SDS011;8402;51.466;6.806;2022-12-18T00:59:44;32.80;;;11.17;;
16579;SDS011;8402;51.466;6.806;2022-12-18T01:02:13;24.13;;;10.20;;
16579;SDS011;8402;51.466;6.806;2022-12-18T01:04:41;18.30;;;7.63;;
16579;SDS011;8402;51.466;6.806;2022-12-18T01:07:09;20.50;;;8.73;;
16579;SDS011;8402;51.466;6.806;2022-12-18T01:09:37;19.00;;;9.10;;
16579;SDS011;8402;51.466;6.806;2022-12-18T01:12:06;26.87;;;10.50;;
16579;SDS011;8402;51.466;6.806;2022-12-18T01:14:33;24.13;;;8.83;;
16579;SDS011;8402;51.466;6.806;2022-12-18T01:17:01;30.87;;;11.03;;
16579;SDS011;8402;51.466;6.806;2022-12-18T01:19:31;29.47;;;10.80;;
16579;SDS011;8402;51.466;6.806;2022-12-18T01:21:59;24.90;;;9.17;;
16579;SDS011;8402;51.466;6.806;2022-12-18T01:24:27;23.73;;;8.50;;
16579;SDS011;8402;51.466;6.806;2022-12-18T01:26:55;22.63;;;9.73;;
16579;SDS011;8402;51.466;6.806;2022-12-18T01:29:24;25.93;;;9.67;;
16579;SDS011;8402;51.466;6.806;2022-12-18T01:31:54;18.43;;;8.17;;
16579;SDS011;8402;51.466;6.806;2022-12-18T01:34:22;31.70;;;10.03;;
16579;SDS011;8402;51.466;6.806;2022-12-18T01:36:52;22.77;;;10.10;;
16579;SDS011;8402;51.466;6.806;2022-12-18T01:39:20;27.40;;;10.67;;
16579;SDS011;8402;51.466;6.806;2022-12-18T01:41:47;27.87;;;9.57;;
16579;SDS011;8402;51.466;6.806;2022-12-18T01:47:38;29.43;;;9.93;;
16579;SDS011;8402;51.466;6.806;2022-12-18T01:50:12;30.87;;;11.10;;
16579;SDS011;8402;51.466;6.806;2022-12-18T01:52:45;29.13;;;10.67;;
16579;SDS011;8402;51.466;6.806;2022-12-18T01:55:17;29.40;;;11.10;;
16579;SDS011;8402;51.466;6.806;2022-12-18T01:57:48;25.00;;;9.87;;
16579;SDS011;8402;51.466;6.806;2022-12-18T02:00:20;32.03;;;11.20;;
16579;SDS011;8402;51.466;6.806;2022-12-18T02:02:48;22.03;;;10.03;;
16579;SDS011;8402;51.466;6.806;2022-12-18T02:05:17;33.50;;;12.17;;
16579;SDS011;8402;51.466;6.806;2022-12-18T02:07:55;27.27;;;10.23;;
16579;SDS011;8402;51.466;6.806;2022-12-18T02:10:35;25.00;;;10.93;;
16579;SDS011;8402;51.466;6.806;2022-12-18T02:13:12;40.00;;;13.00;;
16579;SDS011;8402;51.466;6.806;2022-12-18T02:15:46;27.67;;;11.20;;
16579;SDS011;8402;51.466;6.806;2022-12-18T02:18:23;25.00;;;9.47;;
16579;SDS011;8402;51.466;6.806;2022-12-18T02:20:57;26.43;;;11.33;;
16579;SDS011;8402;51.466;6.806;2022-12-18T02:23:38;26.03;;;10.20;;
16579;SDS011;8402;51.466;6.806;2022-12-18T02:26:16;27.87;;;10.33;;
16579;SDS011;8402;51.466;6.806;2022-12-18T02:28:49;27.30;;;11.63;;
16579;SDS011;8402;51.466;6.806;2022-12-18T02:31:21;28.10;;;10.43;;
16579;SDS011;8402;51.466;6.806;2022-12-18T02:33:53;29.07;;;10.87;;
16579;SDS011;8402;51.466;6.806;2022-12-18T02:36:23;25.83;;;11.00;;
16579;SDS011;8402;51.466;6.806;2022-12-18T02:38:54;35.30;;;12.50;;
16579;SDS011;8402;51.466;6.806;2022-12-18T02:41:25;32.60;;;12.73;;
16579;SDS011;8402;51.466;6.806;2022-12-18T02:43:55;38.93;;;10.77;;
16579;SDS011;8402;51.466;6.806;2022-12-18T02:46:28;33.97;;;12.43;;
16579;SDS011;8402;51.466;6.806;2022-12-18T02:49:06;30.93;;;12.70;;
16579;SDS011;8402;51.466;6.806;2022-12-18T02:51:45;28.97;;;13.27;;
16579;SDS011;8402;51.466;6.806;2022-12-18T02:54:20;31.77;;;12.13;;
16579;SDS011;8402;51.466;6.806;2022-12-18T02:57:03;36.00;;;11.07;;
16579;SDS011;8402;51.466;6.806;2022-12-18T02:59:38;25.17;;;10.47;;
16579;SDS011;8402;51.466;6.806;2022-12-18T03:02:16;23.67;;;8.83;;
16579;SDS011;8402;51.466;6.806;2022-12-18T03:04:49;28.13;;;12.40;;
16579;SDS011;8402;51.466;6.806;2022-12-18T03:07:26;36.63;;;10.80;;
16579;SDS011;8402;51.466;6.806;2022-12-18T03:10:01;25.87;;;11.87;;
16579;SDS011;8402;51.466;6.806;2022-12-18T03:12:33;26.10;;;10.43;;
16579;SDS011;8402;51.466;6.806;2022-12-18T03:15:06;33.83;;;12.20;;
16579;SDS011;8402;51.466;6.806;2022-12-18T03:17:44;32.20;;;11.27;;
16579;SDS011;8402;51.466;6.806;2022-12-18T03:20:17;22.47;;;9.57;;
16579;SDS011;8402;51.466;6.806;2022-12-18T03:22:47;30.07;;;12.03;;
16579;SDS011;8402;51.466;6.806;2022-12-18T03:25:19;30.50;;;11.20;;
16579;SDS011;8402;51.466;6.806;2022-12-18T03:27:51;33.60;;;12.77;;
16579;SDS011;8402;51.466;6.806;2022-12-18T03:30:23;40.00;;;13.47;;
16579;SDS011;8402;51.466;6.806;2022-12-18T03:32:56;34.90;;;12.27;;
16579;SDS011;8402;51.466;6.806;2022-12-18T03:35:29;38.47;;;13.43;;
16579;SDS011;8402;51.466;6.806;2022-12-18T03:38:02;35.90;;;11.23;;
16579;SDS011;8402;51.466;6.806;2022-12-18T03:40:31;32.20;;;10.20;;
16579;SDS011;8402;51.466;6.806;2022-12-18T03:43:10;31.00;;;10.43;;
16579;SDS011;8402;51.466;6.806;2022-12-18T03:45:46;28.27;;;11.47;;
16579;SDS011;8402;51.466;6.806;2022-12-18T03:48:19;22.30;;;10.37;;
16579;SDS011;8402;51.466;6.806;2022-12-18T03:50:55;28.30;;;10.17;;
16579;SDS011;8402;51.466;6.806;2022-12-18T03:53:27;26.03;;;10.27;;
16579;SDS011;8402;51.466;6.806;2022-12-18T03:56:04;28.23;;;11.27;;
16579;SDS011;8402;51.466;6.806;2022-12-18T03:58:34;27.30;;;11.33;;
16579;SDS011;8402;51.466;6.806;2022-12-18T04:01:06;25.47;;;9.77;;
16579;SDS011;8402;51.466;6.806;2022-12-18T04:03:37;25.97;;;9.40;;
16579;SDS011;8402;51.466;6.806;2022-12-18T04:06:06;29.93;;;10.03;;
16579;SDS011;8402;51.466;6.806;2022-12-18T04:08:35;24.07;;;8.27;;
16579;SDS011;8402;51.466;6.806;2022-12-18T04:11:03;18.80;;;8.10;;
16579;SDS011;8402;51.466;6.806;2022-12-18T04:13:32;22.83;;;7.63;;
16579;SDS011;8402;51.466;6.806;2022-12-18T04:16:04;24.03;;;9.13;;
16579;SDS011;8402;51.466;6.806;2022-12-18T04:18:32;17.27;;;7.53;;
16579;SDS011;8402;51.466;6.806;2022-12-18T04:21:00;20.87;;;8.10;;
16579;SDS011;8402;51.466;6.806;2022-12-18T04:23:28;14.67;;;6.17;;
16579;SDS011;8402;51.466;6.806;2022-12-18T04:25:56;18.07;;;6.33;;
16579;SDS011;8402;51.466;6.806;2022-12-18T04:28:24;17.77;;;6.30;;
16579;SDS011;8402;51.466;6.806;2022-12-18T04:30:53;14.70;;;5.70;;
16579;SDS011;8402;51.466;6.806;2022-12-18T04:33:21;14.73;;;5.47;;
16579;SDS011;8402;51.466;6.806;2022-12-18T04:35:49;15.27;;;6.57;;
16579;SDS011;8402;51.466;6.806;2022-12-18T04:38:17;18.83;;;6.27;;
16579;SDS011;8402;51.466;6.806;2022-12-18T04:40:45;16.27;;;6.13;;
16579;SDS011;8402;51.466;6.806;2022-12-18T04:43:12;13.43;;;5.43;;
16579;SDS011;8402;51.466;6.806;2022-12-18T04:45:40;12.90;;;5.63;;
16579;SDS011;8402;51.466;6.806;2022-12-18T04:48:10;13.77;;;5.93;;
16579;SDS011;8402;51.466;6.806;2022-12-18T04:50:38;13.40;;;5.77;;
16579;SDS011;8402;51.466;6.806;2022-12-18T04:53:06;20.23;;;6.80;;
16579;SDS011;8402;51.466;6.806;2022-12-18T04:55:35;15.47;;;6.73;;
16579;SDS011;8402;51.466;6.806;2022-12-18T04:58:03;19.27;;;5.80;;
16579;SDS011;8402;51.466;6.806;2022-12-18T05:00:31;12.10;;;5.67;;
16579;SDS011;8402;51.466;6.806;2022-12-18T05:03:00;27.50;;;7.40;;
16579;SDS011;8402;51.466;6.806;2022-12-18T05:05:30;16.93;;;6.10;;
16579;SDS011;8402;51.466;6.806;2022-12-18T05:07:58;13.50;;;5.83;;
16579;SDS011;8402;51.466;6.806;2022-12-18T05:10:27;16.53;;;6.43;;
16579;SDS011;8402;51.466;6.806;2022-12-18T05:13:03;20.80;;;6.83;;
16579;SDS011;8402;51.466;6.806;2022-12-18T05:15:31;22.17;;;6.63;;
16579;SDS011;8402;51.466;6.806;2022-12-18T05:18:00;15.83;;;5.80;;
16579;SDS011;8402;51.466;6.806;2022-12-18T05:20:30;21.43;;;6.80;;
16579;SDS011;8402;51.466;6.806;2022-12-18T05:22:59;12.23;;;5.90;;
16579;SDS011;8402;51.466;6.806;2022-12-18T05:25:26;19.50;;;7.40;;
16579;SDS011;8402;51.466;6.806;2022-12-18T05:27:55;23.57;;;8.17;;
16579;SDS011;8402;51.466;6.806;2022-12-18T05:30:23;21.53;;;9.40;;
16579;SDS011;8402;51.466;6.806;2022-12-18T05:32:51;18.67;;;7.93;;
16579;SDS011;8402;51.466;6.806;2022-12-18T05:35:18;26.40;;;9.57;;
16579;SDS011;8402;51.466;6.806;2022-12-18T05:37:48;20.27;;;8.33;;
16579;SDS011;8402;51.466;6.806;2022-12-18T05:40:15;30.67;;;10.90;;
16579;SDS011;8402;51.466;6.806;2022-12-18T05:42:43;25.87;;;9.53;;
16579;SDS011;8402;51.466;6.806;2022-12-18T05:45:11;34.83;;;11.53;;
16579;SDS011;8402;51.466;6.806;2022-12-18T05:47:39;28.30;;;9.97;;
16579;SDS011;8402;51.466;6.806;2022-12-18T05:50:07;28.67;;;11.93;;
16579;SDS011;8402;51.466;6.806;2022-12-18T05:52:35;21.83;;;8.93;;
16579;SDS011;8402;51.466;6.806;2022-12-18T05:55:05;28.07;;;10.17;;
16579;SDS011;8402;51.466;6.806;2022-12-18T05:57:33;34.83;;;12.27;;
16579;SDS011;8402;51.466;6.806;2022-12-18T06:00:01;24.23;;;10.90;;
16579;SDS011;8402;51.466;6.806;2022-12-18T06:02:30;31.40;;;13.13;;
16579;SDS011;8402;51.466;6.806;2022-12-18T06:04:58;23.93;;;10.10;;
16579;SDS011;8402;51.466;6.806;2022-12-18T06:07:25;35.87;;;11.53;;
16579;SDS011;8402;51.466;6.806;2022-12-18T06:09:53;33.57;;;13.00;;
16579;SDS011;8402;51.466;6.806;2022-12-18T06:12:22;34.23;;;12.47;;
16579;SDS011;8402;51.466;6.806;2022-12-18T06:14:50;28.60;;;10.87;;
16579;SDS011;8402;51.466;6.806;2022-12-18T06:17:18;25.90;;;11.47;;
16579;SDS011;8402;51.466;6.806;2022-12-18T06:19:46;30.33;;;11.30;;
16579;SDS011;8402;51.466;6.806;2022-12-18T06:22:14;35.87;;;12.83;;
16579;SDS011;8402;51.466;6.806;2022-12-18T06:24:43;21.93;;;9.40;;
16579;SDS011;8402;51.466;6.806;2022-12-18T06:27:11;29.93;;;10.07;;
16579;SDS011;8402;51.466;6.806;2022-12-18T06:29:40;42.03;;;12.67;;
16579;SDS011;8402;51.466;6.806;2022-12-18T06:32:08;32.80;;;10.00;;
16579;SDS011;8402;51.466;6.806;2022-12-18T06:34:36;32.40;;;12.67;;
16579;SDS011;8402;51.466;6.806;2022-12-18T06:37:04;31.57;;;10.73;;
16579;SDS011;8402;51.466;6.806;2022-12-18T06:39:32;33.50;;;13.13;;
16579;SDS011;8402;51.466;6.806;2022-12-18T06:42:00;29.03;;;11.27;;
16579;SDS011;8402;51.466;6.806;2022-12-18T06:44:28;40.97;;;15.00;;
16579;SDS011;8402;51.466;6.806;2022-12-18T06:46:57;32.53;;;13.50;;
16579;SDS011;8402;51.466;6.806;2022-12-18T06:49:25;33.00;;;12.60;;
16579;SDS011;8402;51.466;6.806;2022-12-18T06:51:56;31.87;;;11.70;;
16579;SDS011;8402;51.466;6.806;2022-12-18T06:54:23;36.83;;;12.53;;
16579;SDS011;8402;51.466;6.806;2022-12-18T06:56:51;32.77;;;12.37;;
16579;SDS011;8402;51.466;6.806;2022-12-18T06:59:21;27.00;;;12.07;;
16579;SDS011;8402;51.466;6.806;2022-12-18T07:01:49;33.53;;;11.70;;
16579;SDS011;8402;51.466;6.806;2022-12-18T07:04:19;27.37;;;10.87;;
16579;SDS011;8402;51.466;6.806;2022-12-18T07:06:47;24.53;;;11.23;;
16579;SDS011;8402;51.466;6.806;2022-12-18T07:09:14;27.07;;;11.27;;
16579;SDS011;8402;51.466;6.806;2022-12-18T07:11:42;34.43;;;13.53;;
16579;SDS011;8402;51.466;6.806;2022-12-18T07:14:10;28.47;;;10.60;;
16579;SDS011;8402;51.466;6.806;2022-12-18T07:16:38;28.57;;;10.53;;
16579;SDS011;8402;51.466;6.806;2022-12-18T07:19:07;32.60;;;11.67;;
16579;SDS011;8402;51.466;6.806;2022-12-18T07:21:36;33.30;;;12.43;;
16579;SDS011;8402;51.466;6.806;2022-12-18T07:24:04;25.33;;;10.20;;
16579;SDS011;8402;51.466;6.806;2022-12-18T07:26:33;24.47;;;10.90;;
16579;SDS011;8402;51.466;6.806;2022-12-18T07:29:01;31.67;;;11.70;;
16579;SDS011;8402;51.466;6.806;2022-12-18T07:31:29;38.37;;;13.20;;
16579;SDS011;8402;51.466;6.806;2022-12-18T07:33:57;31.27;;;12.10;;
16579;SDS011;8402;51.466;6.806;2022-12-18T07:36:24;30.07;;;12.27;;
16579;SDS011;8402;51.466;6.806;2022-12-18T07:38:54;34.03;;;11.17;;
16579;SDS011;8402;51.466;6.806;2022-12-18T07:41:22;38.83;;;14.33;;
16579;SDS011;8402;51.466;6.806;2022-12-18T07:43:50;34.40;;;12.70;;
16579;SDS011;8402;51.466;6.806;2022-12-18T07:46:17;32.70;;;11.67;;
16579;SDS011;8402;51.466;6.806;2022-12-18T07:48:46;33.97;;;12.10;;
16579;SDS011;8402;51.466;6.806;2022-12-18T07:51:15;26.87;;;9.60;;
16579;SDS011;8402;51.466;6.806;2022-12-18T07:53:43;30.03;;;11.77;;
16579;SDS011;8402;51.466;6.806;2022-12-18T07:56:16;24.73;;;9.23;;
16579;SDS011;8402;51.466;6.806;2022-12-18T07:58:53;36.57;;;11.20;;
16579;SDS011;8402;51.466;6.806;2022-12-18T08:01:21;29.87;;;10.03;;
16579;SDS011;8402;51.466;6.806;2022-12-18T08:03:49;33.93;;;10.90;;
16579;SDS011;8402;51.466;6.806;2022-12-18T08:06:17;25.53;;;10.33;;
16579;SDS011;8402;51.466;6.806;2022-12-18T08:08:50;25.47;;;11.53;;
16579;SDS011;8402;51.466;6.806;2022-12-18T08:11:20;32.50;;;11.97;;
16579;SDS011;8402;51.466;6.806;2022-12-18T08:13:48;28.13;;;10.90;;
16579;SDS011;8402;51.466;6.806;2022-12-18T08:16:16;27.97;;;11.00;;
16579;SDS011;8402;51.466;6.806;2022-12-18T08:18:45;27.30;;;10.30;;
16579;SDS011;8402;51.466;6.806;2022-12-18T08:21:16;27.37;;;10.53;;
16579;SDS011;8402;51.466;6.806;2022-12-18T08:23:47;32.30;;;10.97;;
16579;SDS011;8402;51.466;6.806;2022-12-18T08:26:17;23.00;;;9.40;;
16579;SDS011;8402;51.466;6.806;2022-12-18T08:28:47;23.73;;;9.47;;
16579;SDS011;8402;51.466;6.806;2022-12-18T08:31:16;30.67;;;10.47;;
16579;SDS011;8402;51.466;6.806;2022-12-18T08:33:47;27.90;;;11.57;;
16579;SDS011;8402;51.466;6.806;2022-12-18T08:36:16;25.40;;;9.93;;
16579;SDS011;8402;51.466;6.806;2022-12-18T08:38:44;24.60;;;10.67;;
16579;SDS011;8402;51.466;6.806;2022-12-18T08:41:13;27.83;;;12.07;;
16579;SDS011;8402;51.466;6.806;2022-12-18T08:43:42;25.47;;;10.77;;
16579;SDS011;8402;51.466;6.806;2022-12-18T08:46:32;25.20;;;9.80;;
16579;SDS011;8402;51.466;6.806;2022-12-18T08:49:03;20.10;;;7.87;;
16579;SDS011;8402;51.466;6.806;2022-12-18T08:51:31;29.80;;;12.03;;
16579;SDS011;8402;51.466;6.806;2022-12-18T08:53:59;26.23;;;11.13;;
16579;SDS011;8402;51.466;6.806;2022-12-18T08:56:29;32.67;;;11.83;;
16579;SDS011;8402;51.466;6.806;2022-12-18T08:58:57;34.23;;;12.07;;
16579;SDS011;8402;51.466;6.806;2022-12-18T09:01:25;29.90;;;13.03;;
16579;SDS011;8402;51.466;6.806;2022-12-18T09:03:55;29.30;;;11.90;;
16579;SDS011;8402;51.466;6.806;2022-12-18T09:06:23;31.30;;;10.43;;
16579;SDS011;8402;51.466;6.806;2022-12-18T09:08:52;33.60;;;11.97;;
16579;SDS011;8402;51.466;6.806;2022-12-18T09:11:21;39.27;;;13.57;;
16579;SDS011;8402;51.466;6.806;2022-12-18T09:13:51;41.53;;;13.97;;
16579;SDS011;8402;51.466;6.806;2022-12-18T09:16:20;36.77;;;13.23;;
16579;SDS011;8402;51.466;6.806;2022-12-18T09:18:58;27.57;;;10.63;;
16579;SDS011;8402;51.466;6.806;2022-12-18T09:21:27;29.63;;;12.53;;
16579;SDS011;8402;51.466;6.806;2022-12-18T09:23:57;31.87;;;12.90;;
16579;SDS011;8402;51.466;6.806;2022-12-18T09:26:26;36.80;;;13.30;;
16579;SDS011;8402;51.466;6.806;2022-12-18T09:28:54;32.37;;;13.43;;
16579;SDS011;8402;51.466;6.806;2022-12-18T09:31:23;35.70;;;13.57;;
16579;SDS011;8402;51.466;6.806;2022-12-18T09:33:51;33.30;;;13.63;;
16579;SDS011;8402;51.466;6.806;2022-12-18T09:36:23;32.20;;;12.90;;
16579;SDS011;8402;51.466;6.806;2022-12-18T09:38:51;38.73;;;15.60;;
16579;SDS011;8402;51.466;6.806;2022-12-18T09:41:24;52.50;;;17.70;;
16579;SDS011;8402;51.466;6.806;2022-12-18T09:44:01;34.67;;;13.63;;
16579;SDS011;8402;51.466;6.806;2022-12-18T09:46:33;60.70;;;22.13;;
16579;SDS011;8402;51.466;6.806;2022-12-18T09:49:06;15.17;;;7.17;;
16579;SDS011;8402;51.466;6.806;2022-12-18T09:51:42;3.53;;;1.60;;
16579;SDS011;8402;51.466;6.806;2022-12-18T09:54:20;10.10;;;3.57;;
16579;SDS011;8402;51.466;6.806;2022-12-18T09:56:52;5.27;;;2.03;;
16579;SDS011;8402;51.466;6.806;2022-12-18T09:59:21;5.17;;;2.63;;
16579;SDS011;8402;51.466;6.806;2022-12-18T10:02:01;6.67;;;2.43;;
16579;SDS011;8402;51.466;6.806;2022-12-18T10:04:46;8.73;;;3.67;;
16579;SDS011;8402;51.466;6.806;2022-12-18T10:07:29;9.27;;;3.40;;
16579;SDS011;8402;51.466;6.806;2022-12-18T10:10:06;5.33;;;1.57;;
16579;SDS011;8402;51.466;6.806;2022-12-18T10:12:43;6.77;;;2.37;;
16579;SDS011;8402;51.466;6.806;2022-12-18T10:15:23;8.03;;;2.73;;
16579;SDS011;8402;51.466;6.806;2022-12-18T10:17:56;6.97;;;2.37;;
16579;SDS011;8402;51.466;6.806;2022-12-18T10:20:32;6.57;;;3.10;;
16579;SDS011;8402;51.466;6.806;2022-12-18T10:23:11;6.07;;;2.60;;
16579;SDS011;8402;51.466;6.806;2022-12-18T10:25:50;8.23;;;3.33;;
16579;SDS011;8402;51.466;6.806;2022-12-18T10:28:23;6.97;;;2.43;;
16579;SDS011;8402;51.466;6.806;2022-12-18T10:30:53;6.13;;;2.87;;
16579;SDS011;8402;51.466;6.806;2022-12-18T10:33:22;7.17;;;3.13;;
16579;SDS011;8402;51.466;6.806;2022-12-18T10:35:52;8.63;;;3.80;;
16579;SDS011;8402;51.466;6.806;2022-12-18T10:38:28;7.33;;;3.40;;
16579;SDS011;8402;51.466;6.806;2022-12-18T10:41:00;10.20;;;4.10;;
16579;SDS011;8402;51.466;6.806;2022-12-18T10:43:30;10.27;;;4.20;;
16579;SDS011;8402;51.466;6.806;2022-12-18T10:46:14;8.70;;;3.53;;
16579;SDS011;8402;51.466;6.806;2022-12-18T10:48:50;8.07;;;3.67;;
16579;SDS011;8402;51.466;6.806;2022-12-18T10:51:26;8.63;;;3.17;;
16579;SDS011;8402;51.466;6.806;2022-12-18T10:53:59;9.77;;;3.73;;
16579;SDS011;8402;51.466;6.806;2022-12-18T10:56:34;8.13;;;4.33;;
16579;SDS011;8402;51.466;6.806;2022-12-18T10:59:09;13.97;;;3.63;;
16579;SDS011;8402;51.466;6.806;2022-12-18T11:01:47;15.87;;;3.93;;
16579;SDS011;8402;51.466;6.806;2022-12-18T11:04:21;8.60;;;3.37;;
16579;SDS011;8402;51.466;6.806;2022-12-18T11:06:58;6.00;;;2.40;;
16579;SDS011;8402;51.466;6.806;2022-12-18T11:09:28;6.90;;;3.13;;
16579;SDS011;8402;51.466;6.806;2022-12-18T11:11:58;9.10;;;3.83;;
16579;SDS011;8402;51.466;6.806;2022-12-18T11:14:28;10.77;;;4.17;;
16579;SDS011;8402;51.466;6.806;2022-12-18T11:17:00;6.90;;;2.87;;
16579;SDS011;8402;51.466;6.806;2022-12-18T11:19:51;6.73;;;3.37;;
16579;SDS011;8402;51.466;6.806;2022-12-18T11:22:21;10.63;;;3.37;;
16579;SDS011;8402;51.466;6.806;2022-12-18T11:24:55;8.00;;;3.60;;
16579;SDS011;8402;51.466;6.806;2022-12-18T11:27:47;14.83;;;4.70;;
16579;SDS011;8402;51.466;6.806;2022-12-18T11:30:23;7.77;;;3.30;;
16579;SDS011;8402;51.466;6.806;2022-12-18T11:32:55;7.03;;;3.03;;
16579;SDS011;8402;51.466;6.806;2022-12-18T11:35:30;11.23;;;5.23;;
16579;SDS011;8402;51.466;6.806;2022-12-18T11:38:06;8.87;;;3.87;;
16579;SDS011;8402;51.466;6.806;2022-12-18T11:40:44;8.10;;;3.70;;
16579;SDS011;8402;51.466;6.806;2022-12-18T11:43:17;9.37;;;3.53;;
16579;SDS011;8402;51.466;6.806;2022-12-18T11:45:49;7.47;;;3.47;;
16579;SDS011;8402;51.466;6.806;2022-12-18T11:48:21;9.93;;;3.53;;
16579;SDS011;8402;51.466;6.806;2022-12-18T11:50:52;11.50;;;5.10;;
16579;SDS011;8402;51.466;6.806;2022-12-18T11:53:21;13.43;;;5.27;;
16579;SDS011;8402;51.466;6.806;2022-12-18T11:56:00;14.43;;;6.03;;
16579;SDS011;8402;51.466;6.806;2022-12-18T11:58:40;9.07;;;3.57;;
16579;SDS011;8402;51.466;6.806;2022-12-18T12:01:27;7.50;;;3.50;;
16579;SDS011;8402;51.466;6.806;2022-12-18T12:04:22;12.93;;;4.73;;
16579;SDS011;8402;51.466;6.806;2022-12-18T12:07:11;13.57;;;6.20;;
16579;SDS011;8402;51.466;6.806;2022-12-18T12:09:49;12.47;;;5.07;;
16579;SDS011;8402;51.466;6.806;2022-12-18T12:12:31;11.83;;;4.93;;
16579;SDS011;8402;51.466;6.806;2022-12-18T12:15:17;7.73;;;4.10;;
16579;SDS011;8402;51.466;6.806;2022-12-18T12:17:55;13.60;;;4.70;;
16579;SDS011;8402;51.466;6.806;2022-12-18T12:20:40;7.43;;;3.57;;
16579;SDS011;8402;51.466;6.806;2022-12-18T12:23:19;12.40;;;4.63;;
16579;SDS011;8402;51.466;6.806;2022-12-18T12:25:56;14.93;;;4.57;;
16579;SDS011;8402;51.466;6.806;2022-12-18T12:28:44;7.57;;;3.70;;
16579;SDS011;8402;51.466;6.806;2022-12-18T12:31:23;7.90;;;3.30;;
16579;SDS011;8402;51.466;6.806;2022-12-18T12:34:06;9.97;;;4.63;;
16579;SDS011;8402;51.466;6.806;2022-12-18T12:36:45;11.60;;;5.10;;
16579;SDS011;8402;51.466;6.806;2022-12-18T12:39:27;15.93;;;7.27;;
16579;SDS011;8402;51.466;6.806;2022-12-18T12:41:57;16.93;;;7.10;;
16579;SDS011;8402;51.466;6.806;2022-12-18T12:44:45;9.83;;;4.33;;
16579;SDS011;8402;51.466;6.806;2022-12-18T12:47:22;14.20;;;5.83;;
16579;SDS011;8402;51.466;6.806;2022-12-18T12:49:55;14.73;;;5.20;;
16579;SDS011;8402;51.466;6.806;2022-12-18T12:52:27;9.70;;;5.03;;
16579;SDS011;8402;51.466;6.806;2022-12-18T12:55:00;12.63;;;5.00;;
16579;SDS011;8402;51.466;6.806;2022-12-18T12:57:40;13.40;;;5.67;;
16579;SDS011;8402;51.466;6.806;2022-12-18T13:00:15;17.00;;;6.07;;
16579;SDS011;8402;51.466;6.806;2022-12-18T13:02:47;13.33;;;5.60;;
16579;SDS011;8402;51.466;6.806;2022-12-18T13:05:21;11.03;;;5.40;;
16579;SDS011;8402;51.466;6.806;2022-12-18T13:07:54;11.10;;;4.63;;
16579;SDS011;8402;51.466;6.806;2022-12-18T13:10:30;11.23;;;5.13;;
16579;SDS011;8402;51.466;6.806;2022-12-18T13:13:01;13.27;;;5.63;;
16579;SDS011;8402;51.466;6.806;2022-12-18T13:15:36;12.80;;;5.17;;
16579;SDS011;8402;51.466;6.806;2022-12-18T13:18:16;10.97;;;4.60;;
16579;SDS011;8402;51.466;6.806;2022-12-18T13:20:47;10.57;;;4.80;;
16579;SDS011;8402;51.466;6.806;2022-12-18T13:23:27;10.40;;;4.63;;
16579;SDS011;8402;51.466;6.806;2022-12-18T13:25:58;14.60;;;5.07;;
16579;SDS011;8402;51.466;6.806;2022-12-18T13:28:50;9.60;;;3.80;;
16579;SDS011;8402;51.466;6.806;2022-12-18T13:34:46;12.07;;;5.57;;
16579;SDS011;8402;51.466;6.806;2022-12-18T13:37:42;6.73;;;3.03;;
16579;SDS011;8402;51.466;6.806;2022-12-18T13:43:23;12.27;;;5.10;;
16579;SDS011;8402;51.466;6.806;2022-12-18T13:46:05;11.13;;;5.27;;
16579;SDS011;8402;51.466;6.806;2022-12-18T13:48:49;13.77;;;4.77;;
16579;SDS011;8402;51.466;6.806;2022-12-18T13:51:21;10.97;;;5.00;;
16579;SDS011;8402;51.466;6.806;2022-12-18T13:53:51;12.70;;;5.00;;
16579;SDS011;8402;51.466;6.806;2022-12-18T13:56:22;9.80;;;5.00;;
16579;SDS011;8402;51.466;6.806;2022-12-18T13:59:10;10.83;;;4.40;;
16579;SDS011;8402;51.466;6.806;2022-12-18T14:01:42;16.47;;;6.37;;
16579;SDS011;8402;51.466;6.806;2022-12-18T14:04:16;11.67;;;5.77;;
16579;SDS011;8402;51.466;6.806;2022-12-18T14:06:49;13.87;;;5.87;;
16579;SDS011;8402;51.466;6.806;2022-12-18T14:09:20;12.37;;;6.10;;
16579;SDS011;8402;51.466;6.806;2022-12-18T14:11:53;17.07;;;6.17;;
16579;SDS011;8402;51.466;6.806;2022-12-18T14:14:44;15.00;;;6.43;;
16579;SDS011;8402;51.466;6.806;2022-12-18T14:17:15;18.83;;;8.00;;
16579;SDS011;8402;51.466;6.806;2022-12-18T14:19:44;14.00;;;6.20;;
16579;SDS011;8402;51.466;6.806;2022-12-18T14:22:16;17.50;;;6.63;;
16579;SDS011;8402;51.466;6.806;2022-12-18T14:24:46;13.43;;;6.13;;
16579;SDS011;8402;51.466;6.806;2022-12-18T14:27:22;22.30;;;7.77;;
16579;SDS011;8402;51.466;6.806;2022-12-18T14:29:51;10.83;;;4.03;;
16579;SDS011;8402;51.466;6.806;2022-12-18T14:32:20;11.53;;;5.37;;
16579;SDS011;8402;51.466;6.806;2022-12-18T14:34:49;16.17;;;6.53;;
16579;SDS011;8402;51.466;6.806;2022-12-18T14:37:21;14.53;;;6.60;;
16579;SDS011;8402;51.466;6.806;2022-12-18T14:39:54;15.37;;;6.17;;
16579;SDS011;8402;51.466;6.806;2022-12-18T14:42:25;16.17;;;6.70;;
16579;SDS011;8402;51.466;6.806;2022-12-18T14:48:07;18.07;;;6.87;;
16579;SDS011;8402;51.466;6.806;2022-12-18T14:50:38;15.10;;;7.20;;
16579;SDS011;8402;51.466;6.806;2022-12-18T14:53:16;18.30;;;7.67;;
16579;SDS011;8402;51.466;6.806;2022-12-18T14:55:47;7.33;;;3.57;;
16579;SDS011;8402;51.466;6.806;2022-12-18T14:58:15;17.53;;;7.53;;
16579;SDS011;8402;51.466;6.806;2022-12-18T15:00:45;17.23;;;7.40;;
16579;SDS011;8402;51.466;6.806;2022-12-18T15:03:14;16.47;;;6.17;;
16579;SDS011;8402;51.466;6.806;2022-12-18T15:05:46;13.10;;;6.67;;
16579;SDS011;8402;51.466;6.806;2022-12-18T15:08:26;19.13;;;8.93;;
16579;SDS011;8402;51.466;6.806;2022-12-18T15:10:59;10.93;;;5.50;;
16579;SDS011;8402;51.466;6.806;2022-12-18T15:13:28;21.13;;;7.77;;
16579;SDS011;8402;51.466;6.806;2022-12-18T15:15:57;19.27;;;7.07;;
16579;SDS011;8402;51.466;6.806;2022-12-18T15:18:29;16.83;;;7.93;;
16579;SDS011;8402;51.466;6.806;2022-12-18T15:21:07;19.50;;;8.00;;
16579;SDS011;8402;51.466;6.806;2022-12-18T15:23:37;20.20;;;8.40;;